^^
Grace C. Lehan Memorial Weather Station Historical Data
Daily Summary for August 12, 2021 Units:  English    Metric   Both
Daily Weekly Monthly Yearly
  High: Low: Average:
Temperature: 97.5 °F 75 °F 85.7 °F
Dew Point: 78 °F 70.6 °F 74.2 °F
Humidity: 91% 50.7% 71%
Wind Speed: 4.3mph 0mph 0.7mph
Wind Gust: 17mph - -
Wind- - WSW
Pressure: 29.95 in 29.86 in -
Precipitation: 0.00 in    
 
 
Tabular Data for August 12, 2021
Time Temperature Dew Point Pressure Wind Wind Speed Wind Gust Humidity Rainfall Rate (Hourly) solar
00:04 78.9 °F 75.1 °F 29.91 in Calm     88% 0.00 in 0 W/m2
00:09 78.8 °F 75.2 °F 29.92 in Calm     88.7% 0.00 in 0 W/m2
00:14 78.7 °F 75.2 °F 29.91 in Calm     89% 0.00 in 0 W/m2
00:19 78.6 °F 75.1 °F 29.91 in Calm     89% 0.00 in 0 W/m2
00:24 78.5 °F 75 °F 29.91 in Calm     89% 0.00 in 0 W/m2
00:29 78.5 °F 75 °F 29.91 in Calm     89% 0.00 in 0 W/m2
00:34 78.4 °F 74.9 °F 29.91 in Calm     89% 0.00 in 0 W/m2
00:39 78.3 °F 74.8 °F 29.91 in Calm     89% 0.00 in 0 W/m2
00:44 78.3 °F 75.1 °F 29.91 in Calm     89.9% 0.00 in 0 W/m2
00:49 78.2 °F 75 °F 29.91 in Calm     90% 0.00 in 0 W/m2
00:54 78.2 °F 75 °F 29.91 in Calm     90% 0.00 in 0 W/m2
00:59 78.1 °F 74.9 °F 29.90 in Calm     90% 0.00 in 0 W/m2
01:04 78.1 °F 74.9 °F 29.90 in Calm     90% 0.00 in 0 W/m2
01:09 78 °F 74.8 °F 29.90 in Calm     90% 0.00 in 0 W/m2
01:14 78 °F 74.8 °F 29.90 in Calm     90% 0.00 in 0 W/m2
01:19 77.9 °F 74.8 °F 29.90 in Calm     90% 0.00 in 0 W/m2
01:24 77.9 °F 74.6 °F 29.90 in Calm     89.6% 0.00 in 0 W/m2
01:29 77.8 °F 74.3 °F 29.90 in Calm     89% 0.00 in 0 W/m2
01:34 77.8 °F 74.3 °F 29.89 in Calm     89% 0.00 in 0 W/m2
01:39 77.8 °F 74.3 °F 29.89 in Calm     89% 0.00 in 0 W/m2
01:44 77.7 °F 74.2 °F 29.89 in Calm     89% 0.00 in 0 W/m2
01:49 77.6 °F 74.1 °F 29.89 in Calm     89% 0.00 in 0 W/m2
01:54 77.5 °F 74.1 °F 29.89 in Calm     89.4% 0.00 in 0 W/m2
01:59 77.3 °F 74 °F 29.89 in Calm     89.4% 0.00 in 0 W/m2
02:04 77.3 °F 74.1 °F 29.89 in Calm     89.9% 0.00 in 0 W/m2
02:09 77.1 °F 74 °F 29.89 in Calm     90% 0.00 in 0 W/m2
02:14 77 °F 73.9 °F 29.90 in Calm     90% 0.00 in 0 W/m2
02:19 76.9 °F 73.8 °F 29.90 in Calm     90% 0.00 in 0 W/m2
02:24 76.8 °F 73.7 °F 29.90 in Calm     90% 0.00 in 0 W/m2
02:29 76.7 °F 73.6 °F 29.90 in Calm     90% 0.00 in 0 W/m2
02:34 76.6 °F 73.5 °F 29.89 in Calm     90% 0.00 in 0 W/m2
02:39 76.5 °F 73.7 °F 29.89 in Calm     90.9% 0.00 in 0 W/m2
02:44 76.4 °F 73.6 °F 29.89 in Calm     91% 0.00 in 0 W/m2
02:49 76.3 °F 73.5 °F 29.89 in Calm     91% 0.00 in 0 W/m2
02:54 76.2 °F 73.1 °F 29.89 in Calm     90.2% 0.00 in 0 W/m2
02:59 76.1 °F 73.3 °F 29.90 in Calm     90.9% 0.00 in 0 W/m2
03:04 76 °F 73.2 °F 29.90 in Calm     91% 0.00 in 0 W/m2
03:09 75.9 °F 73.1 °F 29.90 in Calm     91% 0.00 in 0 W/m2
03:14 75.8 °F 73 °F 29.90 in Calm     91% 0.00 in 0 W/m2
03:19 75.8 °F 72.9 °F 29.90 in Calm     91% 0.00 in 0 W/m2
03:24 75.7 °F 72.9 °F 29.91 in Calm     91% 0.00 in 0 W/m2
03:29 75.6 °F 72.7 °F 29.91 in Calm     90.7% 0.00 in 0 W/m2
03:34 75.5 °F 72.4 °F 29.91 in Calm     90% 0.00 in 0 W/m2
03:39 75.4 °F 72.3 °F 29.91 in Calm     90% 0.00 in 0 W/m2
03:44 75.4 °F 72.3 °F 29.91 in Calm     90% 0.00 in 0 W/m2
03:49 75.4 °F 72 °F 29.90 in Calm     89.1% 0.00 in 0 W/m2
03:54 75.4 °F 72 °F 29.90 in Calm   1 mph 89% 0.00 in 0 W/m2
03:59 75.5 °F 72 °F 29.90 in Calm   1 mph 89% 0.00 in 0 W/m2
04:00 75.5 °F 72 °F 29.90 in Calm   1 mph 89% 0.00 in 0 W/m2
04:09 75.4 °F 71.6 °F 29.90 in Calm     88.1% 0.00 in 0 W/m2
04:14 75.4 °F 71.6 °F 29.90 in WSW 0.1 mph 4 mph 88% 0.00 in 0 W/m2
04:19 75.4 °F 71.6 °F 29.91 in Calm   4 mph 88% 0.00 in 0 W/m2
04:24 75.3 °F 71.5 °F 29.91 in WSW 0.1 mph 4 mph 88% 0.00 in 0 W/m2
04:29 75.3 °F 71.5 °F 29.91 in Calm   4 mph 88% 0.00 in 0 W/m2
04:34 75.2 °F 71.4 °F 29.90 in Calm   4 mph 88% 0.00 in 0 W/m2
04:39 75.2 °F 71.4 °F 29.90 in Calm     88% 0.00 in 0 W/m2
04:44 75.2 °F 71.4 °F 29.90 in Calm     88% 0.00 in 0 W/m2
04:49 75.2 °F 71.4 °F 29.91 in Calm     88% 0.00 in 0 W/m2
04:54 75.1 °F 71.3 °F 29.91 in Calm     88% 0.00 in 0 W/m2
04:59 75.1 °F 71.3 °F 29.90 in Calm     88% 0.00 in 0 W/m2
05:04 75.1 °F 71.3 °F 29.90 in Calm     88% 0.00 in 0 W/m2
05:09 75.1 °F 71.2 °F 29.90 in Calm     87.7% 0.00 in 0 W/m2
05:14 75 °F 71.1 °F 29.90 in Calm     87.6% 0.00 in 0 W/m2
05:19 75 °F 70.9 °F 29.90 in Calm     87% 0.00 in 0 W/m2
05:24 75 °F 70.9 °F 29.90 in Calm     87% 0.00 in 0 W/m2
05:29 75.1 °F 70.9 °F 29.91 in Calm     87% 0.00 in 0 W/m2
05:34 75.1 °F 71 °F 29.91 in Calm     87% 0.00 in 0 W/m2
05:39 75.1 °F 71 °F 29.91 in Calm     87% 0.00 in 0 W/m2
05:44 75.1 °F 71 °F 29.91 in Calm     87% 0.00 in 0 W/m2
05:49 75.1 °F 71 °F 29.91 in Calm     87% 0.00 in 0 W/m2
05:54 75.1 °F 71 °F 29.92 in Calm     87% 0.00 in 0 W/m2
05:59 75.1 °F 71 °F 29.92 in Calm     87% 0.00 in 0 W/m2
06:04 75.1 °F 70.9 °F 29.92 in Calm     87% 0.00 in 5 W/m2
06:09 75 °F 70.9 °F 29.92 in Calm     87% 0.00 in 12 W/m2
06:14 75.1 °F 70.9 °F 29.92 in Calm     87% 0.00 in 14 W/m2
06:19 75.1 °F 71 °F 29.92 in Calm     87% 0.00 in 16 W/m2
06:24 75.1 °F 70.9 °F 29.93 in Calm     86.7% 0.00 in 25 W/m2
06:29 75.1 °F 70.6 °F 29.93 in Calm     86% 0.00 in 25 W/m2
06:34 75.2 °F 70.7 °F 29.93 in Calm     86% 0.00 in 25 W/m2
06:39 75.3 °F 70.8 °F 29.93 in Calm     86% 0.00 in 28 W/m2
06:44 75.4 °F 70.9 °F 29.93 in Calm     86% 0.00 in 42 W/m2
06:49 75.5 °F 71 °F 29.93 in Calm     86% 0.00 in 79 W/m2
06:54 75.7 °F 71.2 °F 29.93 in Calm     86% 0.00 in 118 W/m2
06:59 76 °F 71.2 °F 29.92 in Calm     85.1% 0.00 in 142 W/m2
07:04 76.4 °F 71.5 °F 29.92 in Calm     84.8% 0.00 in 88 W/m2
07:09 76.7 °F 71.5 °F 29.92 in Calm     84% 0.00 in 179 W/m2
07:14 77.1 °F 71.6 °F 29.93 in Calm     83.2% 0.00 in 199 W/m2
07:19 77.5 °F 71.8 °F 29.92 in Calm     82.5% 0.00 in 190 W/m2
07:24 78.1 °F 72 °F 29.92 in Calm     81.6% 0.00 in 185 W/m2
07:29 78.7 °F 72 °F 29.92 in Calm     80.2% 0.00 in 192 W/m2
07:34 79.1 °F 72.3 °F 29.93 in Calm   1 mph 79.6% 0.00 in 229 W/m2
07:39 79.6 °F 72.5 °F 29.93 in SSW 0.2 mph 4 mph 78.8% 0.00 in 236 W/m2
07:44 80.1 °F 72.8 °F 29.93 in WSW 0.4 mph 10 mph 78.5% 0.00 in 232 W/m2
07:49 80.5 °F 72.8 °F 29.93 in West 0.6 mph 10 mph 77.4% 0.00 in 243 W/m2
07:54 80.7 °F 72.5 °F 29.93 in SW 1.4 mph 10 mph 76% 0.00 in 267 W/m2
07:59 80.9 °F 72.5 °F 29.93 in Calm   10 mph 75.5% 0.00 in 292 W/m2
08:09 81.7 °F 73 °F 29.93 in WSW 0.3 mph 7 mph 75% 0.00 in 330 W/m2
08:14 82.1 °F 73.1 °F 29.93 in WSW 1.1 mph 7 mph 74.3% 0.00 in 341 W/m2
08:19 82.4 °F 73 °F 29.93 in SSW 0.5 mph 7 mph 73.2% 0.00 in 360 W/m2
08:24 82.6 °F 72.9 °F 29.94 in WSW 1.3 mph 10 mph 72.4% 0.00 in 359 W/m2
08:29 82.7 °F 72.9 °F 29.94 in Calm   10 mph 72.2% 0.00 in 367 W/m2
08:34 83 °F 73.2 °F 29.94 in Calm   10 mph 72.3% 0.00 in 385 W/m2
08:39 83.4 °F 73.5 °F 29.94 in Calm     72.1% 0.00 in 403 W/m2
08:44 83.8 °F 73.1 °F 29.93 in Calm     70.3% 0.00 in 413 W/m2
08:49 84.2 °F 73.7 °F 29.94 in SW 0.1 mph 2 mph 70.8% 0.00 in 429 W/m2
08:54 84.7 °F 73.8 °F 29.94 in SW 1.1 mph 6 mph 69.8% 0.00 in 431 W/m2
08:59 85 °F 73.7 °F 29.94 in SW 1.1 mph 6 mph 69% 0.00 in 441 W/m2
09:04 85.3 °F 73.6 °F 29.94 in West 1.7 mph 7 mph 68.1% 0.00 in 482 W/m2
09:09 85.6 °F 74.2 °F 29.94 in West 0.2 mph 7 mph 68.8% 0.00 in 497 W/m2
09:14 86.1 °F 74.6 °F 29.94 in West 0.6 mph 7 mph 68.7% 0.00 in 522 W/m2
09:19 86.7 °F 74.5 °F 29.94 in Calm   7 mph 67.2% 0.00 in 543 W/m2
09:24 87 °F 73.7 °F 29.94 in West 0.1 mph 7 mph 64.9% 0.00 in 571 W/m2
09:29 87.3 °F 74.5 °F 29.94 in Calm   7 mph 66% 0.00 in 592 W/m2
09:34 87.6 °F 74.5 °F 29.95 in Calm   7 mph 65.2% 0.00 in 621 W/m2
09:39 88.1 °F 74.7 °F 29.95 in West 1.2 mph 4 mph 64.8% 0.00 in 691 W/m2
09:44 88.6 °F 74.1 °F 29.95 in West 0.3 mph 4 mph 62.4% 0.00 in 691 W/m2
09:49 88.5 °F 74.3 °F 29.95 in WNW 1.1 mph 4 mph 63.1% 0.00 in 383 W/m2
09:54 88.4 °F 75 °F 29.95 in WNW 0.3 mph 4 mph 64.7% 0.00 in 663 W/m2
09:59 88.8 °F 74.7 °F 29.95 in Calm   4 mph 63.1% 0.00 in 694 W/m2
10:04 89 °F 73.6 °F 29.95 in WNW 0.5 mph 4 mph 60.6% 0.00 in 717 W/m2
10:09 88.7 °F 73.3 °F 29.94 in West 0.1 mph 3 mph 60.5% 0.00 in 710 W/m2
10:14 88.9 °F 74.7 °F 29.94 in West 0.3 mph 3 mph 62.9% 0.00 in 698 W/m2
10:19 89.6 °F 74.9 °F 29.94 in West 0.1 mph 3 mph 62% 0.00 in 696 W/m2
10:24 90.3 °F 74.6 °F 29.94 in Calm   3 mph 60.1% 0.00 in 703 W/m2
10:29 90.8 °F 74.7 °F 29.94 in Calm   3 mph 59.4% 0.00 in 714 W/m2
10:34 91.2 °F 74.5 °F 29.93 in West 0.6 mph 3 mph 58.2% 0.00 in 722 W/m2
10:39 91.6 °F 74.7 °F 29.93 in West 0.2 mph 3 mph 57.9% 0.00 in 731 W/m2
10:44 92 °F 75 °F 29.93 in West 0.2 mph 4 mph 57.8% 0.00 in 744 W/m2
10:49 92.4 °F 75.7 °F 29.94 in Calm   4 mph 58.4% 0.00 in 751 W/m2
10:54 92.6 °F 75.4 °F 29.94 in Calm   4 mph 57.6% 0.00 in 763 W/m2
10:59 92.9 °F 75.8 °F 29.94 in West 0.7 mph 4 mph 57.7% 0.00 in 773 W/m2
11:04 93.5 °F 75.8 °F 29.94 in West 0.5 mph 4 mph 56.7% 0.00 in 779 W/m2
11:09 93.7 °F 75.3 °F 29.94 in West 0.3 mph 3 mph 55.4% 0.00 in 786 W/m2
11:14 93.7 °F 75 °F 29.93 in West 0.2 mph 3 mph 54.8% 0.00 in 791 W/m2
11:19 93.5 °F 75.2 °F 29.93 in West 0.4 mph 4 mph 55.6% 0.00 in 800 W/m2
11:24 93.6 °F 76 °F 29.93 in West 0.4 mph 4 mph 56.8% 0.00 in 809 W/m2
11:29 93.7 °F 75.2 °F 29.93 in West 0.3 mph 4 mph 55.3% 0.00 in 821 W/m2
11:34 93.9 °F 76.1 °F 29.93 in West 0.8 mph 4 mph 56.6% 0.00 in 833 W/m2
11:39 94.2 °F 76.2 °F 29.93 in West 1.5 mph 5 mph 56.2% 0.00 in 847 W/m2
11:44 94.6 °F 76.4 °F 29.93 in West 2 mph 5 mph 55.9% 0.00 in 902 W/m2
11:49 95.1 °F 76.2 °F 29.93 in WSW 2.2 mph 7 mph 54.5% 0.00 in 886 W/m2
11:54 95.3 °F 75.6 °F 29.92 in WSW 1.1 mph 7 mph 53.1% 0.00 in 854 W/m2
11:59 95.3 °F 76.1 °F 29.93 in WSW 1.4 mph 7 mph 54.1% 0.00 in 851 W/m2
12:00 95.4 °F 76.1 °F 29.92 in Calm   7 mph 54% 0.00 in 838 W/m2
12:09 95.7 °F 75.9 °F 29.92 in WSW 1.4 mph 4 mph 53.1% 0.00 in 849 W/m2
12:14 95.8 °F 76.3 °F 29.92 in WSW 1.1 mph 4 mph 53.7% 0.00 in 851 W/m2
12:19 95.7 °F 76.1 °F 29.92 in SW 2.3 mph 6 mph 53.4% 0.00 in 868 W/m2
12:24 95.7 °F 75.3 °F 29.93 in SW 2.8 mph 6 mph 52.2% 0.00 in 949 W/m2
12:29 95.4 °F 74.8 °F 29.92 in SW 1.1 mph 6 mph 51.7% 0.00 in 949 W/m2
12:34 95.3 °F 75.9 °F 29.92 in SW 1.2 mph 6 mph 53.8% 0.00 in 633 W/m2
12:39 95.2 °F 75.6 °F 29.92 in SW 1 mph 6 mph 53.3% 0.00 in 907 W/m2
12:44 95.2 °F 75.4 °F 29.92 in WSW 1.9 mph 7 mph 53.2% 0.00 in 909 W/m2
12:49 95.3 °F 75.3 °F 29.92 in WSW 1.2 mph 7 mph 52.7% 0.00 in 942 W/m2
12:54 95.7 °F 76.4 °F 29.92 in West 1 mph 7 mph 53.9% 0.00 in 879 W/m2
12:59 96.1 °F 75.7 °F 29.92 in West 0.8 mph 7 mph 52.1% 0.00 in 923 W/m2
13:04 96.5 °F 75.2 °F 29.92 in WSW 1.8 mph 11 mph 50.7% 0.00 in 916 W/m2
13:09 96.7 °F 75.8 °F 29.92 in WSW 1.3 mph 11 mph 51.3% 0.00 in 930 W/m2
13:14 97 °F 76.4 °F 29.92 in WSW 1 mph 11 mph 51.7% 0.00 in 932 W/m2
13:19 97.2 °F 76.4 °F 29.91 in West 1.1 mph 11 mph 51.6% 0.00 in 932 W/m2
13:24 97.4 °F 76.5 °F 29.91 in West 0.9 mph 11 mph 51.5% 0.00 in 979 W/m2
13:29 97.5 °F 76.8 °F 29.91 in West 2.3 mph 11 mph 51.8% 0.00 in 958 W/m2
13:34 97.4 °F 76.8 °F 29.91 in WSW 2 mph 11 mph 52% 0.00 in 573 W/m2
13:39 97.1 °F 77 °F 29.91 in WSW 2.1 mph 8 mph 52.8% 0.00 in 559 W/m2
13:44 96.8 °F 76.5 °F 29.91 in SW 1 mph 8 mph 52.4% 0.00 in 896 W/m2
13:49 96.3 °F 76.5 °F 29.91 in SW 2.8 mph 11 mph 53.2% 0.00 in 991 W/m2
13:54 96.2 °F 76.5 °F 29.91 in SW 1.9 mph 11 mph 53.3% 0.00 in 981 W/m2
13:59 96.3 °F 76.6 °F 29.91 in SW 3.3 mph 11 mph 53.4% 0.00 in 782 W/m2
14:03 96.2 °F 77.1 °F 29.90 in WSW 2.6 mph 11 mph 54.5% 0.00 in 846 W/m2
14:09 96.2 °F 77.1 °F 29.90 in SW 1.3 mph 10 mph 54.4% 0.00 in 427 W/m2
14:14 96.1 °F 77.1 °F 29.90 in WSW 3 mph 10 mph 54.6% 0.00 in 696 W/m2
14:19 96 °F 76.9 °F 29.90 in WSW 2.9 mph 10 mph 54.3% 0.00 in 802 W/m2
14:24 96 °F 76.8 °F 29.89 in SW 1.9 mph 10 mph 54.3% 0.00 in 824 W/m2
14:29 96 °F 76.9 °F 29.89 in SW 2.1 mph 10 mph 54.3% 0.00 in 817 W/m2
14:34 96.1 °F 76.9 °F 29.89 in WSW 1.7 mph 10 mph 54.3% 0.00 in 800 W/m2
14:39 96.3 °F 77.3 °F 29.88 in SW 0.9 mph 6 mph 54.7% 0.00 in 791 W/m2
14:44 96.6 °F 78 °F 29.88 in WSW 1 mph 6 mph 55.5% 0.00 in 789 W/m2
14:49 96.9 °F 77.9 °F 29.88 in WSW 1.2 mph 6 mph 54.5% 0.00 in 777 W/m2
14:54 97.1 °F 77.8 °F 29.88 in WSW 1.5 mph 7 mph 54.2% 0.00 in 773 W/m2
14:59 97.3 °F 77.2 °F 29.88 in WSW 3.2 mph 10 mph 52.8% 0.00 in 773 W/m2
15:04 97.4 °F 77.3 °F 29.88 in WSW 2.3 mph 10 mph 52.8% 0.00 in 754 W/m2
15:09 97.3 °F 77.5 °F 29.88 in SW 3.6 mph 10 mph 53.3% 0.00 in 752 W/m2
15:14 97.1 °F 77.1 °F 29.88 in WSW 2.9 mph 10 mph 52.8% 0.00 in 791 W/m2
15:19 97.2 °F 76.7 °F 29.87 in SW 2.5 mph 10 mph 52.2% 0.00 in 777 W/m2
15:24 97.2 °F 76.9 °F 29.87 in SW 1.5 mph 10 mph 52.5% 0.00 in 777 W/m2
15:29 97.4 °F 77.4 °F 29.87 in WSW 3.4 mph 10 mph 53% 0.00 in 728 W/m2
15:34 97.5 °F 77.2 °F 29.87 in WSW 2 mph 10 mph 52.4% 0.00 in 735 W/m2
15:38 97.3 °F 77.3 °F 29.87 in SW 2.5 mph 8 mph 53% 0.00 in 735 W/m2
15:44 96.9 °F 77.2 °F 29.87 in WSW 1.3 mph 12 mph 53.4% 0.00 in 174 W/m2
15:49 96.6 °F 77.1 °F 29.87 in WSW 2.7 mph 12 mph 53.7% 0.00 in 749 W/m2
15:54 96.3 °F 77 °F 29.87 in WSW 3.4 mph 12 mph 54.1% 0.00 in 744 W/m2
15:59 96.3 °F 76.8 °F 29.87 in WSW 0.9 mph 12 mph 53.8% 0.00 in 650 W/m2
16:09 96.8 °F 76.6 °F 29.88 in SW 4.3 mph 13 mph 52.5% 0.00 in 613 W/m2
16:14 96.7 °F 76.3 °F 29.88 in WSW 3.4 mph 13 mph 52.2% 0.00 in 594 W/m2
16:19 96.5 °F 76.4 °F 29.88 in SW 3 mph 13 mph 52.7% 0.00 in 105 W/m2
16:24 96.3 °F 76.4 °F 29.88 in SW 2.7 mph 13 mph 53% 0.00 in 104 W/m2
16:29 96.1 °F 76.4 °F 29.88 in WSW 3.6 mph 13 mph 53.3% 0.00 in 76 W/m2
16:34 95.9 °F 76.4 °F 29.88 in WSW 3.5 mph 13 mph 53.7% 0.00 in 72 W/m2
16:39 95.7 °F 76.4 °F 29.87 in West 0.8 mph 11 mph 54% 0.00 in 69 W/m2
16:44 95.6 °F 76.9 °F 29.87 in WSW 4 mph 17 mph 55.2% 0.00 in 67 W/m2
16:49 95.3 °F 76.7 °F 29.87 in WSW 2.6 mph 17 mph 55.1% 0.00 in 58 W/m2
16:54 95.2 °F 77 °F 29.87 in West 2.5 mph 17 mph 56% 0.00 in 58 W/m2
16:59 95 °F 76.4 °F 29.87 in SW 3.1 mph 17 mph 55.2% 0.00 in 58 W/m2
17:04 94.8 °F 77 °F 29.87 in SSW 3.4 mph 17 mph 56.6% 0.00 in 58 W/m2
17:09 94.5 °F 77.1 °F 29.86 in SW 2.3 mph 11 mph 57.3% 0.00 in 51 W/m2
17:14 94.3 °F 77.1 °F 29.87 in SW 1.1 mph 11 mph 57.7% 0.00 in 49 W/m2
17:19 94.2 °F 77.2 °F 29.87 in SW 3.9 mph 11 mph 58% 0.00 in 51 W/m2
17:24 94 °F 76.9 °F 29.87 in SW 2.3 mph 11 mph 57.8% 0.00 in 46 W/m2
17:29 93.7 °F 77 °F 29.87 in SW 1.2 mph 11 mph 58.7% 0.00 in 63 W/m2
17:34 93.2 °F 76.7 °F 29.87 in WSW 1.9 mph 11 mph 58.8% 0.00 in 69 W/m2
17:39 92.9 °F 76.7 °F 29.86 in WSW 1.2 mph 8 mph 59.5% 0.00 in 46 W/m2
17:44 92.5 °F 76.6 °F 29.86 in WSW 1 mph 8 mph 60% 0.00 in 42 W/m2
17:49 92.3 °F 76.2 °F 29.87 in West 1.4 mph 8 mph 59.6% 0.00 in 47 W/m2
17:54 92.1 °F 76.2 °F 29.88 in WSW 0.1 mph 8 mph 60% 0.00 in 47 W/m2
17:59 92 °F 76.7 °F 29.88 in WSW 0.4 mph 8 mph 61.1% 0.00 in 40 W/m2
18:04 91.9 °F 76.2 °F 29.88 in WSW 0.3 mph 8 mph 60.4% 0.00 in 42 W/m2
18:09 91.7 °F 76.1 °F 29.88 in Calm   3 mph 60.5% 0.00 in 42 W/m2
18:14 91.6 °F 76.5 °F 29.89 in West 0.1 mph 3 mph 61.4% 0.00 in 42 W/m2
18:19 91.5 °F 76.4 °F 29.89 in West 0.5 mph 4 mph 61.4% 0.00 in 40 W/m2
18:24 91.2 °F 76.8 °F 29.90 in NW 3.8 mph 8 mph 62.8% 0.00 in 21 W/m2
18:29 90.7 °F 76 °F 29.90 in NNW 2.6 mph 11 mph 62.3% 0.00 in 32 W/m2
18:34 89.6 °F 74.7 °F 29.90 in North 1.8 mph 11 mph 61.5% 0.00 in 32 W/m2
18:39 88.7 °F 74.1 °F 29.88 in NNE 0.9 mph 7 mph 62.4% 0.00 in 32 W/m2
18:44 88 °F 74.1 °F 29.88 in Calm   7 mph 63.5% 0.00 in 30 W/m2
18:49 87.5 °F 73.5 °F 29.88 in ENE 0.2 mph 7 mph 63.3% 0.00 in 32 W/m2
18:54 87 °F 73 °F 29.88 in ENE 0.1 mph 7 mph 63.1% 0.00 in 32 W/m2
18:59 86.6 °F 72.9 °F 29.88 in Calm   7 mph 63.7% 0.00 in 30 W/m2
19:04 86.4 °F 72.6 °F 29.88 in Calm   7 mph 63.7% 0.00 in 28 W/m2
19:09 86.1 °F 72.6 °F 29.88 in Calm     64.2% 0.00 in 26 W/m2
19:14 85.9 °F 72.5 °F 29.89 in Calm     64.4% 0.00 in 23 W/m2
19:19 85.6 °F 72.5 °F 29.89 in ENE 0.3 mph 3 mph 65% 0.00 in 21 W/m2
19:24 85.3 °F 72.4 °F 29.89 in ENE 0.4 mph 5 mph 65.5% 0.00 in 18 W/m2
19:29 84.9 °F 72.2 °F 29.89 in ENE 2.7 mph 9 mph 65.8% 0.00 in 18 W/m2
19:34 84.4 °F 71.4 °F 29.89 in East 0.9 mph 9 mph 65% 0.00 in 16 W/m2
19:39 84 °F 71.4 °F 29.90 in East 0.5 mph 4 mph 66% 0.00 in 12 W/m2
19:44 83.5 °F 71.4 °F 29.90 in East 0.4 mph 4 mph 67% 0.00 in 9 W/m2
19:49 83.1 °F 71.6 °F 29.90 in Calm   4 mph 68.4% 0.00 in 7 W/m2
19:54 82.8 °F 71.6 °F 29.90 in Calm   4 mph 69.1% 0.00 in 0 W/m2
19:59 82.5 °F 71.8 °F 29.90 in East 0.2 mph 4 mph 70% 0.00 in 0 W/m2
20:00 82.4 °F 71.6 °F 29.90 in Calm   4 mph 70% 0.00 in 0 W/m2
20:09 82.1 °F 71.8 °F 29.90 in Calm     71% 0.00 in 0 W/m2
20:14 81.9 °F 72 °F 29.90 in Calm     71.9% 0.00 in 0 W/m2
20:19 81.8 °F 71.9 °F 29.90 in Calm     72% 0.00 in 0 W/m2
20:24 81.6 °F 71.9 °F 29.90 in Calm     72.3% 0.00 in 0 W/m2
20:29 81.5 °F 72 °F 29.90 in Calm     73% 0.00 in 0 W/m2
20:34 81.4 °F 71.9 °F 29.90 in Calm     73% 0.00 in 0 W/m2
20:39 81.2 °F 71.8 °F 29.91 in Calm     73% 0.00 in 0 W/m2
20:44 81.1 °F 72 °F 29.91 in Calm     73.8% 0.00 in 0 W/m2
20:49 81 °F 71.9 °F 29.91 in Calm     74% 0.00 in 0 W/m2
20:54 80.9 °F 72.2 °F 29.91 in Calm     75% 0.00 in 0 W/m2
20:58 80.7 °F 72.1 °F 29.92 in Calm     75% 0.00 in 0 W/m2
Hartford County Weather
Compliments of Weather Underground - 2 mb